This is the latest recevied weather packets stored in our database for station/object SP3ZBZ-13. If no packets are shown the sender has not sent any weather packets the latest 10 day(s).
| Time | Temp. | Humidity | Pressure | Rain* | Wind** | Luminosity | Snow |
|---|---|---|---|---|---|---|---|
| 1777663694 | 16.11° C | 47% | 1020.9 hPa | - | - | - | - |
| 1777662793 | 17.22° C | 42% | 1020.8 hPa | - | - | - | - |
| 1777661893 | 18.89° C | 41% | 1020.6 hPa | - | - | - | - |
| 1777660992 | 20° C | 37% | 1020.5 hPa | - | - | - | - |
| 1777660091 | 19.44° C | 39% | 1020.4 hPa | - | - | 1 W/m² | - |
| 1777659190 | 18.33° C | 40% | 1020.2 hPa | - | - | 5 W/m² | - |
| 1777658289 | 20° C | 42% | 1020 hPa | - | - | 12 W/m² | - |
| 1777657388 | 22.78° C | 34% | 1019.9 hPa | - | - | 22 W/m² | - |
| 1777656487 | 22.78° C | 32% | 1019.8 hPa | - | - | 32 W/m² | - |
| 1777655586 | 23.33° C | 31% | 1019.8 hPa | - | - | 41 W/m² | - |
| 1777654685 | 23.33° C | 29% | 1019.8 hPa | - | - | 54 W/m² | - |
| 1777653785 | 23.33° C | 29% | 1019.9 hPa | - | - | 80 W/m² | - |
| 1777652884 | 23.33° C | 29% | 1020 hPa | - | - | 117 W/m² | - |
| 1777651982 | 23.33° C | 28% | 1020.1 hPa | - | - | 151 W/m² | - |
| 1777651082 | 23.89° C | 27% | 1020.2 hPa | - | - | 185 W/m² | - |
| 1777650181 | 23.33° C | 28% | 1020.4 hPa | - | - | 222 W/m² | - |
| 1777649280 | 23.33° C | 28% | 1020.5 hPa | - | - | 260 W/m² | - |
| 1777648379 | 23.33° C | 29% | 1020.6 hPa | - | - | 295 W/m² | - |
| 1777647478 | 23.33° C | 27% | 1020.6 hPa | - | - | 337 W/m² | - |
| 1777646577 | 22.78° C | 28% | 1020.8 hPa | - | - | 370 W/m² | - |
| 1777645676 | 23.33° C | 29% | 1020.9 hPa | - | - | 413 W/m² | - |
| 1777644775 | 23.33° C | 29% | 1021.1 hPa | - | - | 441 W/m² | - |
| 1777643874 | 22.78° C | 29% | 1021.2 hPa | - | - | 469 W/m² | - |
| 1777642973 | 23.33° C | 29% | 1021.3 hPa | - | - | 503 W/m² | - |
| 1777642072 | 22.78° C | 27% | 1021.3 hPa | - | - | 537 W/m² | - |
* Rain since midnight (hover to see other rain measurements)
** Current wind speed in m/s (hover to see current wind gust speed)